createdAt,value
2017-08-28T00:00:42.181Z,79.10
2017-08-28T00:03:52.200Z,79.10
2017-08-28T00:07:02.001Z,79.10
2017-08-28T00:10:12.448Z,79.30
2017-08-28T00:13:23.117Z,79.50
2017-08-28T00:16:33.162Z,79.10
2017-08-28T00:19:43.225Z,78.60
2017-08-28T00:22:53.468Z,78.50
2017-08-28T00:26:04.089Z,78.90
2017-08-28T00:29:14.376Z,80.00
2017-08-28T00:32:24.708Z,80.20
2017-08-28T00:35:35.487Z,80.90
2017-08-28T00:38:45.653Z,79.60
2017-08-28T00:41:55.804Z,79.20
2017-08-28T00:45:07.146Z,80.50
2017-08-28T00:48:17.848Z,80.50
2017-08-28T00:51:28.703Z,79.90
2017-08-28T00:54:39.381Z,80.10
2017-08-28T00:57:49.852Z,80.00
2017-08-28T01:00:59.700Z,80.50
2017-08-28T01:04:09.386Z,81.20
2017-08-28T01:07:19.768Z,81.10
2017-08-28T01:10:29.855Z,80.40
2017-08-28T01:13:40.028Z,80.40
2017-08-28T01:16:50.467Z,79.60
2017-08-28T01:20:02.044Z,79.70
2017-08-28T01:23:13.133Z,79.60
2017-08-28T01:26:23.940Z,79.50
2017-08-28T01:29:34.188Z,79.80
2017-08-28T01:32:44.480Z,80.50
2017-08-28T01:35:54.597Z,80.40
2017-08-28T01:39:03.858Z,80.00
2017-08-28T01:42:14.478Z,79.60
2017-08-28T01:45:24.777Z,80.20
2017-08-28T01:48:35.385Z,79.90
2017-08-28T01:51:45.666Z,79.50
2017-08-28T01:54:56.357Z,81.10
2017-08-28T01:58:06.779Z,80.60
2017-08-28T02:01:17.238Z,81.00
2017-08-28T02:04:27.656Z,80.70
2017-08-28T02:07:37.483Z,80.30
2017-08-28T02:10:47.596Z,80.60
2017-08-28T02:13:57.889Z,80.20
2017-08-28T02:17:07.949Z,80.40
2017-08-28T02:20:18.365Z,79.80
2017-08-28T02:23:28.762Z,79.70
2017-08-28T02:26:39.455Z,79.80
2017-08-28T02:29:49.072Z,79.60
2017-08-28T02:32:59.731Z,79.90
2017-08-28T02:36:09.865Z,79.20
2017-08-28T02:39:19.978Z,79.10
2017-08-28T02:42:30.741Z,78.80
2017-08-28T02:45:40.966Z,78.90
2017-08-28T02:48:51.690Z,79.00
2017-08-28T02:52:02.207Z,78.60
2017-08-28T02:55:12.008Z,78.50
2017-08-28T02:58:22.909Z,80.10
2017-08-28T03:01:32.702Z,80.00
2017-08-28T03:04:42.984Z,79.50
2017-08-28T03:07:53.732Z,78.30
2017-08-28T03:11:03.865Z,78.70
2017-08-28T03:14:14.217Z,79.70
2017-08-28T03:17:24.730Z,79.70
2017-08-28T03:20:35.202Z,79.80
2017-08-28T03:23:45.851Z,79.80
2017-08-28T03:26:56.976Z,80.30
2017-08-28T03:30:06.932Z,81.20
2017-08-28T03:33:17.004Z,80.40
2017-08-28T03:36:27.978Z,80.40
2017-08-28T03:39:37.619Z,80.00
2017-08-28T03:42:47.980Z,80.00
2017-08-28T03:45:57.744Z,80.10
2017-08-28T03:49:07.986Z,80.00
2017-08-28T03:52:18.485Z,80.70
2017-08-28T03:55:28.944Z,80.20
2017-08-28T03:58:39.060Z,80.90
2017-08-28T04:01:48.896Z,81.80
2017-08-28T04:04:59.101Z,81.60
2017-08-28T04:08:09.370Z,82.00
2017-08-28T04:11:19.036Z,80.60
2017-08-28T04:14:29.210Z,80.70
2017-08-28T04:17:39.864Z,81.30
2017-08-28T04:20:50.110Z,81.00
2017-08-28T04:24:00.522Z,79.90
2017-08-28T04:27:11.028Z,80.10
2017-08-28T04:30:20.725Z,79.50
2017-08-28T04:33:31.235Z,79.20
2017-08-28T04:36:41.481Z,79.80
2017-08-28T04:39:52.050Z,80.50
2017-08-28T04:43:02.722Z,80.70
2017-08-28T04:46:13.490Z,80.60
2017-08-28T04:49:23.945Z,80.50
2017-08-28T04:52:34.669Z,80.10
2017-08-28T04:55:44.676Z,80.00
2017-08-28T04:58:54.897Z,80.00
2017-08-28T05:02:05.846Z,79.90
2017-08-28T05:05:15.965Z,80.40
2017-08-28T05:08:26.549Z,79.90
2017-08-28T05:11:37.373Z,80.00
2017-08-28T05:14:47.720Z,80.00
2017-08-28T05:17:57.405Z,80.10
2017-08-28T05:21:08.044Z,79.60
2017-08-28T05:24:18.380Z,80.00
2017-08-28T05:27:28.797Z,79.80
2017-08-28T05:30:39.275Z,80.30
2017-08-28T05:33:49.657Z,80.00
2017-08-28T05:36:59.549Z,80.30
2017-08-28T05:40:09.316Z,80.60
2017-08-28T05:43:19.220Z,80.90
2017-08-28T05:46:29.577Z,80.80
2017-08-28T05:49:40.038Z,80.10
2017-08-28T05:52:50.439Z,81.40
2017-08-28T05:56:00.817Z,81.10
2017-08-28T05:59:11.386Z,80.10
2017-08-28T06:02:21.866Z,79.70
2017-08-28T06:05:32.449Z,80.00
2017-08-28T06:08:42.300Z,80.10
2017-08-28T06:11:52.938Z,80.70
2017-08-28T06:15:03.188Z,78.50
2017-08-28T06:18:13.477Z,79.60
2017-08-28T06:21:23.976Z,79.90
2017-08-28T06:24:34.680Z,80.00
2017-08-28T06:27:44.623Z,79.90
2017-08-28T06:30:54.923Z,78.80
2017-08-28T06:34:05.152Z,78.70
2017-08-28T06:37:15.856Z,78.00
2017-08-28T06:40:25.860Z,78.00
2017-08-28T06:43:35.455Z,78.10
2017-08-28T06:46:46.076Z,77.20
2017-08-28T06:49:56.389Z,77.80
2017-08-28T06:53:07.748Z,77.00
2017-08-28T06:56:18.069Z,77.00
2017-08-28T06:59:27.685Z,77.10
2017-08-28T07:02:38.332Z,76.00
2017-08-28T07:05:50.030Z,76.00
2017-08-28T07:09:00.280Z,75.00
2017-08-28T07:12:10.600Z,73.30
2017-08-28T07:15:20.697Z,74.40
2017-08-28T07:18:30.711Z,74.00
2017-08-28T07:21:40.484Z,72.30
2017-08-28T07:24:50.963Z,71.80
2017-08-28T07:28:00.929Z,70.60
2017-08-28T07:31:11.696Z,69.20
2017-08-28T07:34:21.891Z,67.30
2017-08-28T07:37:32.637Z,67.50
2017-08-28T07:40:43.088Z,66.80
2017-08-28T07:43:53.344Z,69.10
2017-08-28T07:47:03.336Z,69.20
2017-08-28T07:50:13.311Z,69.20
2017-08-28T07:53:23.236Z,69.70
2017-08-28T07:56:33.691Z,69.10
2017-08-28T07:59:43.284Z,68.30
2017-08-28T08:02:53.581Z,68.50
2017-08-28T08:06:03.870Z,66.20
2017-08-28T08:09:13.652Z,64.20
2017-08-28T08:12:23.823Z,63.70
2017-08-28T08:15:34.125Z,64.80
2017-08-28T08:18:44.753Z,66.70
2017-08-28T08:21:55.483Z,66.10
2017-08-28T08:25:06.184Z,64.20
2017-08-28T08:28:16.565Z,65.00
2017-08-28T08:31:26.519Z,64.50
2017-08-28T08:34:36.757Z,62.30
2017-08-28T08:37:47.056Z,64.50
2017-08-28T08:40:57.356Z,63.10
2017-08-28T08:44:07.980Z,62.80
2017-08-28T08:47:19.156Z,62.80
2017-08-28T08:50:29.064Z,62.80
2017-08-28T08:53:39.364Z,63.20
2017-08-28T08:56:49.821Z,62.70
2017-08-28T09:00:00.037Z,62.80
2017-08-28T09:03:09.613Z,59.60
2017-08-28T09:06:20.192Z,60.90
2017-08-28T09:09:30.454Z,59.00
2017-08-28T09:12:40.966Z,58.10
2017-08-28T09:15:50.849Z,58.90
2017-08-28T09:19:01.435Z,57.40
2017-08-28T09:22:11.810Z,57.60
2017-08-28T09:25:22.360Z,58.10
2017-08-28T09:28:33.007Z,57.60
2017-08-28T09:31:43.266Z,56.00
2017-08-28T09:34:53.651Z,57.90
2017-08-28T09:38:03.951Z,57.50
2017-08-28T09:41:13.796Z,55.00
2017-08-28T09:44:24.205Z,54.50
2017-08-28T09:47:34.343Z,54.40
2017-08-28T09:50:44.375Z,56.10
2017-08-28T09:53:54.285Z,53.50
2017-08-28T09:57:04.776Z,53.60
2017-08-28T10:00:15.134Z,54.70
2017-08-28T10:03:25.509Z,55.20
2017-08-28T10:06:35.589Z,55.20
2017-08-28T10:09:48.741Z,53.60
2017-08-28T10:12:58.964Z,54.30
2017-08-28T10:16:09.209Z,54.50
2017-08-28T10:19:19.595Z,53.10
2017-08-28T10:22:30.111Z,52.20
2017-08-28T10:25:40.720Z,50.20
2017-08-28T10:28:50.562Z,51.80
2017-08-28T10:32:01.122Z,52.90
2017-08-28T10:35:11.365Z,51.00
2017-08-28T10:38:21.716Z,52.00
2017-08-28T10:41:31.707Z,50.90
2017-08-28T10:44:41.896Z,52.00
2017-08-28T10:47:52.273Z,51.20
2017-08-28T10:51:02.769Z,51.20
2017-08-28T10:54:12.529Z,51.00
2017-08-28T10:57:23.116Z,50.40
2017-08-28T11:00:33.741Z,49.60
2017-08-28T11:03:43.461Z,50.30
2017-08-28T11:06:53.312Z,50.30
2017-08-28T11:10:03.933Z,50.20
2017-08-28T11:13:14.102Z,51.80
2017-08-28T11:16:25.441Z,50.40
2017-08-28T11:19:35.584Z,50.70
2017-08-28T11:22:45.476Z,50.20
2017-08-28T11:25:55.943Z,49.40
2017-08-28T11:29:06.126Z,49.90
2017-08-28T11:32:15.706Z,50.40
2017-08-28T11:35:26.865Z,49.80
2017-08-28T11:38:37.687Z,49.70
2017-08-28T11:41:47.723Z,48.20
2017-08-28T11:44:58.341Z,50.10
2017-08-28T11:48:08.593Z,51.20
2017-08-28T11:51:18.387Z,50.00
2017-08-28T11:54:29.260Z,51.30
2017-08-28T11:57:39.661Z,50.80
2017-08-28T12:00:49.271Z,49.50
2017-08-28T12:03:59.913Z,50.10
2017-08-28T12:07:10.504Z,49.30
2017-08-28T12:10:20.778Z,49.00
2017-08-28T12:13:30.999Z,48.90
2017-08-28T12:16:40.983Z,50.70
2017-08-28T12:19:51.492Z,49.50
2017-08-28T12:23:01.948Z,49.00
2017-08-28T12:26:12.788Z,50.60
2017-08-28T12:29:23.047Z,49.10
2017-08-28T12:32:32.813Z,48.00
2017-08-28T12:35:42.856Z,49.50
2017-08-28T12:38:53.048Z,48.50
2017-08-28T12:42:02.671Z,49.50
2017-08-28T12:45:13.165Z,46.50
2017-08-28T12:48:23.753Z,47.50
2017-08-28T12:51:34.142Z,47.90
2017-08-28T12:54:43.621Z,47.80
2017-08-28T12:57:54.003Z,46.60
2017-08-28T13:01:03.921Z,47.30
2017-08-28T13:04:14.264Z,48.40
2017-08-28T13:07:24.553Z,47.00
2017-08-28T13:10:35.347Z,48.00
2017-08-28T13:13:45.980Z,48.80
2017-08-28T13:16:55.864Z,49.70
2017-08-28T13:20:05.886Z,48.30
2017-08-28T13:23:16.377Z,48.30
2017-08-28T13:26:26.757Z,48.20
2017-08-28T13:29:36.834Z,46.70
2017-08-28T13:32:47.338Z,46.60
2017-08-28T13:35:57.531Z,46.40
2017-08-28T13:39:07.475Z,48.20
2017-08-28T13:42:17.451Z,47.60
2017-08-28T13:45:28.290Z,47.30
2017-08-28T13:48:38.533Z,46.00
2017-08-28T13:51:48.839Z,45.40
2017-08-28T13:54:59.217Z,46.50
2017-08-28T13:58:09.942Z,45.10
2017-08-28T14:01:20.226Z,46.30
2017-08-28T14:04:30.520Z,44.80
2017-08-28T14:07:46.508Z,46.00
2017-08-28T14:10:56.793Z,45.00
2017-08-28T14:14:07.116Z,44.10
2017-08-28T14:17:17.484Z,44.50
2017-08-28T14:20:27.989Z,43.10
2017-08-28T14:23:38.235Z,44.20
2017-08-28T14:26:49.064Z,44.60
2017-08-28T14:29:59.114Z,43.30
2017-08-28T14:33:09.275Z,44.50
2017-08-28T14:36:19.748Z,45.70
2017-08-28T14:39:30.103Z,43.00
2017-08-28T14:42:40.300Z,44.90
2017-08-28T14:45:50.965Z,45.20
2017-08-28T14:49:00.857Z,45.00
2017-08-28T14:52:11.342Z,45.50
2017-08-28T14:55:21.501Z,44.40
2017-08-28T14:58:31.084Z,46.20
2017-08-28T15:01:41.506Z,43.70
2017-08-28T15:04:51.329Z,46.30
2017-08-28T15:08:01.942Z,45.50
2017-08-28T15:11:11.653Z,46.20
2017-08-28T15:14:21.639Z,44.90
2017-08-28T15:17:31.597Z,45.70
2017-08-28T15:20:42.241Z,45.30
2017-08-28T15:23:52.584Z,46.10
2017-08-28T15:27:02.509Z,45.80
2017-08-28T15:30:13.197Z,45.00
2017-08-28T15:33:23.387Z,45.30
2017-08-28T15:36:33.540Z,45.70
2017-08-28T15:39:44.081Z,45.90
2017-08-28T15:42:54.124Z,47.00
2017-08-28T15:46:04.010Z,44.10
2017-08-28T15:49:14.076Z,46.50
2017-08-28T15:52:24.495Z,47.10
2017-08-28T15:55:34.268Z,47.20
2017-08-28T15:58:44.069Z,47.50
2017-08-28T16:01:54.192Z,48.10
2017-08-28T16:05:04.548Z,47.50
2017-08-28T16:08:14.810Z,47.90
2017-08-28T16:11:25.549Z,48.30
2017-08-28T16:14:35.351Z,48.80
2017-08-28T16:17:45.179Z,47.80
2017-08-28T16:20:55.574Z,46.80
2017-08-28T16:24:05.865Z,46.40
2017-08-28T16:27:16.269Z,46.80
2017-08-28T16:30:26.184Z,47.70
2017-08-28T16:33:36.565Z,47.20
2017-08-28T16:36:47.330Z,47.60
2017-08-28T16:39:57.891Z,48.10
2017-08-28T16:43:09.000Z,48.50
2017-08-28T16:46:18.725Z,48.60
2017-08-28T16:49:29.041Z,48.80
2017-08-28T16:52:39.288Z,48.60
2017-08-28T16:55:49.257Z,49.00
2017-08-28T16:58:59.707Z,49.50
2017-08-28T17:02:10.093Z,49.30
2017-08-28T17:05:19.641Z,48.90
2017-08-28T17:08:29.738Z,48.90
2017-08-28T17:11:40.640Z,50.40
2017-08-28T17:14:51.141Z,50.40
2017-08-28T17:18:01.481Z,50.50
2017-08-28T17:21:11.714Z,51.30
2017-08-28T17:24:21.892Z,51.50
2017-08-28T17:27:32.277Z,52.30
2017-08-28T17:30:43.050Z,53.90
2017-08-28T17:33:53.554Z,54.60
2017-08-28T17:37:03.940Z,55.30
2017-08-28T17:40:14.217Z,56.20
2017-08-28T17:43:24.398Z,55.70
2017-08-28T17:46:34.809Z,56.50
2017-08-28T17:49:44.581Z,57.20
2017-08-28T17:52:55.045Z,57.20
2017-08-28T17:56:05.722Z,56.80
2017-08-28T17:59:16.480Z,56.80
2017-08-28T18:02:26.421Z,56.90
2017-08-28T18:05:36.719Z,56.90
2017-08-28T18:08:47.099Z,57.40
2017-08-28T18:11:57.477Z,57.30
2017-08-28T18:15:07.366Z,58.00
2017-08-28T18:18:17.755Z,58.50
2017-08-28T18:21:28.117Z,58.90
2017-08-28T18:24:37.977Z,59.00
2017-08-28T18:27:48.374Z,59.80
2017-08-28T18:30:59.058Z,60.20
2017-08-28T18:34:09.457Z,61.10
2017-08-28T18:37:19.884Z,59.40
2017-08-28T18:40:30.039Z,59.20
2017-08-28T18:43:40.588Z,59.90
2017-08-28T18:46:50.920Z,59.40
2017-08-28T18:50:01.227Z,59.50
2017-08-28T18:53:11.404Z,59.30
2017-08-28T18:56:21.220Z,61.20
2017-08-28T18:59:31.381Z,61.50
2017-08-28T19:02:41.095Z,61.60
2017-08-28T19:05:51.733Z,60.20
2017-08-28T19:09:02.180Z,61.90
2017-08-28T19:12:11.994Z,62.10
2017-08-28T19:15:21.449Z,63.00
2017-08-28T19:18:31.981Z,63.00
2017-08-28T19:21:42.508Z,63.10
2017-08-28T19:24:52.807Z,63.20
2017-08-28T19:28:02.966Z,64.00
2017-08-28T19:31:13.156Z,64.00
2017-08-28T19:34:25.008Z,64.90
2017-08-28T19:37:35.700Z,64.40
2017-08-28T19:40:46.129Z,63.90
2017-08-28T19:43:56.371Z,64.90
2017-08-28T19:47:06.666Z,65.30
2017-08-28T19:50:16.696Z,66.50
2017-08-28T19:53:26.436Z,66.30
2017-08-28T19:56:39.937Z,66.80
2017-08-28T19:59:50.517Z,67.50
2017-08-28T20:03:00.900Z,67.60
2017-08-28T20:06:11.188Z,68.30
2017-08-28T20:09:21.098Z,67.90
2017-08-28T20:12:31.374Z,68.30
2017-08-28T20:15:42.132Z,68.40
2017-08-28T20:18:52.389Z,68.40
2017-08-28T20:22:02.860Z,69.00
2017-08-28T20:25:12.896Z,69.60
2017-08-28T20:28:22.962Z,68.90
2017-08-28T20:31:33.014Z,68.80
2017-08-28T20:34:43.769Z,68.50
2017-08-28T20:37:54.306Z,68.80
2017-08-28T20:41:04.073Z,68.50
2017-08-28T20:44:14.336Z,69.50
2017-08-28T20:47:24.361Z,70.10
2017-08-28T20:50:34.695Z,70.50
2017-08-28T20:53:45.216Z,70.30
2017-08-28T20:56:55.495Z,70.00
2017-08-28T21:00:05.839Z,69.90
2017-08-28T21:03:17.509Z,70.10
2017-08-28T21:06:27.784Z,71.20
2017-08-28T21:09:37.435Z,71.90
2017-08-28T21:12:47.864Z,72.10
2017-08-28T21:15:58.236Z,72.40
2017-08-28T21:19:08.357Z,72.70
2017-08-28T21:22:18.932Z,72.80
2017-08-28T21:25:29.454Z,72.80
2017-08-28T21:28:40.310Z,73.10
2017-08-28T21:31:50.208Z,73.10
2017-08-28T21:35:00.878Z,73.00
2017-08-28T21:38:11.367Z,72.80
2017-08-28T21:41:21.776Z,73.10
2017-08-28T21:44:31.884Z,73.30
2017-08-28T21:47:42.020Z,73.30
2017-08-28T21:50:52.342Z,73.40
2017-08-28T21:54:02.597Z,73.50
2017-08-28T21:57:12.977Z,73.60
2017-08-28T22:00:23.796Z,74.50
2017-08-28T22:03:34.495Z,74.30
2017-08-28T22:06:44.821Z,74.10
2017-08-28T22:09:54.895Z,74.10
2017-08-28T22:13:08.912Z,74.10
2017-08-28T22:16:18.924Z,73.80
2017-08-28T22:19:29.326Z,73.50
2017-08-28T22:22:39.542Z,73.10
2017-08-28T22:25:49.468Z,73.10
2017-08-28T22:29:00.221Z,74.70
2017-08-28T22:32:10.784Z,74.60
2017-08-28T22:35:20.925Z,75.20
2017-08-28T22:38:31.526Z,75.80
2017-08-28T22:41:42.024Z,74.90
2017-08-28T22:44:52.391Z,74.70
2017-08-28T22:48:02.132Z,73.80
2017-08-28T22:51:12.331Z,73.50
2017-08-28T22:54:22.158Z,73.50
2017-08-28T22:57:32.558Z,73.70
2017-08-28T23:00:43.070Z,73.70
2017-08-28T23:03:53.460Z,73.80
2017-08-28T23:07:03.604Z,73.60
2017-08-28T23:10:13.392Z,74.10
2017-08-28T23:13:23.796Z,74.20
2017-08-28T23:16:34.500Z,73.80
2017-08-28T23:19:45.076Z,73.40
2017-08-28T23:22:55.729Z,72.80
2017-08-28T23:26:05.863Z,72.70
2017-08-28T23:29:16.295Z,72.80
2017-08-28T23:32:27.017Z,72.20
2017-08-28T23:35:37.077Z,72.70
2017-08-28T23:38:47.472Z,72.60
2017-08-28T23:41:58.088Z,72.50
2017-08-28T23:45:08.474Z,71.90
2017-08-28T23:48:18.681Z,71.70
2017-08-28T23:51:28.480Z,72.10
2017-08-28T23:54:38.945Z,72.10
2017-08-28T23:57:49.405Z,72.40
